Time;durP1;ratioP1;P1;durP2;ratioP2;P2;SDS_P1;SDS_P2;PMS_P1;PMS_P2;Temp;Humidity;BMP_temperature;BMP_pressure;BME280_temperature;BME280_humidity;BME280_pressure;Samples;Min_cycle;Max_cycle;Signal;HPM_P1;HPM_P2
2022/11/23 00:03:30;;;;;;;2.58;1.67;;;;;;;-3.01;91.78;100945.78;10576453;28;20047;-73
2022/11/23 00:08:33;;;;;;;2.17;1.73;;;;;;;-3.00;91.83;100935.88;10575573;28;20046;-74
2022/11/23 00:13:35;;;;;;;3.97;2.80;;;;;;;-2.97;91.86;100940.88;10572714;28;20032;-72
2022/11/23 00:18:37;;;;;;;3.45;1.98;;;;;;;-2.99;92.20;100941.06;10571229;28;20418;-72
2022/11/23 00:23:39;;;;;;;2.28;0.82;;;;;;;-2.99;92.67;100933.00;10568001;28;20508;-72
2022/11/23 00:28:43;;;;;;;2.92;1.55;;;;;;;-2.99;93.13;100938.38;10574073;28;20062;-72
2022/11/23 00:33:51;;;;;;;2.13;1.48;;;;;;;-3.02;93.34;100938.75;10556058;28;20506;-73
2022/11/23 00:38:53;;;;;;;1.10;0.77;;;;;;;-3.04;93.95;100946.16;10572457;28;20040;-73
2022/11/23 00:43:56;;;;;;;2.03;1.83;;;;;;;-3.05;93.90;100948.03;10572530;28;20043;-73
2022/11/23 00:48:59;;;;;;;2.70;1.92;;;;;;;-3.07;94.31;100952.75;10570365;28;20425;-73
2022/11/23 00:54:04;;;;;;;3.15;1.80;;;;;;;-3.12;94.89;100943.59;10562880;28;20040;-73
2022/11/23 00:59:06;;;;;;;3.17;2.53;;;;;;;-3.17;95.09;100957.53;10572029;28;20474;-73
2022/11/23 01:04:09;;;;;;;2.60;2.15;;;;;;;-3.21;95.33;100961.59;10554190;28;20122;-74
2022/11/23 01:09:17;;;;;;;2.83;1.42;;;;;;;-3.26;95.47;100972.06;10554805;28;20048;-73
2022/11/23 01:14:20;;;;;;;3.50;1.57;;;;;;;-3.29;95.81;100958.19;10570360;28;20040;-73
2022/11/23 01:19:22;;;;;;;2.03;1.42;;;;;;;-3.29;95.75;100950.97;10555477;28;20437;-74
2022/11/23 01:24:24;;;;;;;2.72;1.92;;;;;;;-3.28;96.02;100955.31;10551694;28;20039;-74
2022/11/23 01:29:27;;;;;;;2.95;1.80;;;;;;;-3.31;96.37;100949.47;10569890;28;20161;-73
2022/11/23 01:34:29;;;;;;;2.08;1.17;;;;;;;-3.30;95.53;100953.81;10551814;28;20047;-72
2022/11/23 01:39:34;;;;;;;2.35;1.30;;;;;;;-3.31;95.93;100946.78;10568915;28;20044;-73
2022/11/23 01:44:38;;;;;;;3.67;1.95;;;;;;;-3.33;96.95;100958.53;10570874;28;20060;-72
2022/11/23 01:49:51;;;;;;;3.28;1.92;;;;;;;-3.37;96.76;100951.88;10569174;28;20067;-72
2022/11/23 01:54:55;;;;;;;1.30;1.20;;;;;;;-3.39;96.79;100942.34;10560449;28;20395;-72
2022/11/23 01:59:57;;;;;;;2.38;1.05;;;;;;;-3.37;96.64;100948.34;10559702;28;20383;-73
2022/11/23 02:05:00;;;;;;;1.27;1.17;;;;;;;-3.38;96.54;100947.53;10557184;28;20632;-74
2022/11/23 02:10:03;;;;;;;3.42;1.77;;;;;;;-3.40;96.86;100941.50;10560908;28;20040;-73
2022/11/23 02:15:05;;;;;;;3.20;2.00;;;;;;;-3.42;96.98;100954.28;10561622;28;20503;-73
2022/11/23 02:20:15;;;;;;;1.67;1.00;;;;;;;-3.44;96.84;100961.69;10557090;28;20414;-73
2022/11/23 02:25:29;;;;;;;6.57;0.95;;;;;;;-3.47;96.82;100970.09;10550218;28;20051;-73
2022/11/23 02:30:33;;;;;;;5.10;2.13;;;;;;;-3.49;97.01;100958.69;10567353;28;20059;-73
2022/11/23 02:35:47;;;;;;;1.33;0.90;;;;;;;-3.51;96.96;100966.09;10553646;28;20044;-73
2022/11/23 02:40:50;;;;;;;1.15;1.05;;;;;;;-3.48;96.75;100973.75;10562560;28;20040;-73
2022/11/23 02:45:55;;;;;;;2.25;1.42;;;;;;;-3.46;96.99;100971.75;10568042;28;20533;-73
2022/11/23 02:51:00;;;;;;;4.38;1.75;;;;;;;-3.47;97.08;100970.09;10565132;28;21005;-73
2022/11/23 02:56:02;;;;;;;2.72;1.73;;;;;;;-3.47;96.85;100975.47;10548752;28;20040;-73
2022/11/23 03:01:04;;;;;;;3.50;1.83;;;;;;;-3.43;96.73;100970.56;10540814;28;20106;-73
2022/11/23 03:06:07;;;;;;;2.67;1.60;;;;;;;-3.42;96.53;100975.75;10562538;28;20040;-73
2022/11/23 03:11:09;;;;;;;5.80;1.98;;;;;;;-3.44;96.80;100968.88;10538657;28;20048;-73
2022/11/23 03:16:11;;;;;;;3.40;1.80;;;;;;;-3.41;96.94;100979.25;10567722;28;20039;-73
2022/11/23 03:21:14;;;;;;;2.17;1.52;;;;;;;-3.43;96.26;100967.88;10564403;28;20418;-73
2022/11/23 03:26:17;;;;;;;3.25;1.90;;;;;;;-3.43;96.49;100976.75;10542557;28;20048;-73
2022/11/23 03:31:31;;;;;;;3.67;2.20;;;;;;;-3.42;95.94;100983.78;10562894;28;20049;-73
2022/11/23 03:36:36;;;;;;;3.33;1.55;;;;;;;-3.44;96.02;100977.78;10565317;28;20042;-73
2022/11/23 03:41:39;;;;;;;1.70;1.08;;;;;;;-3.45;95.47;100984.16;10550063;28;20117;-73
2022/11/23 03:46:44;;;;;;;2.45;1.70;;;;;;;-3.42;95.52;100989.16;10559215;28;20055;-73
2022/11/23 03:51:46;;;;;;;1.02;0.88;;;;;;;-3.45;95.51;100977.97;10564654;28;20051;-74
2022/11/23 03:56:50;;;;;;;2.85;0.75;;;;;;;-3.46;95.82;100984.34;10554326;28;20044;-73
2022/11/23 04:01:52;;;;;;;0.47;0.47;;;;;;;-3.48;95.12;100970.25;10573532;28;20056;-73
2022/11/23 04:07:02;;;;;;;2.67;1.55;;;;;;;-3.49;95.17;100971.25;10554716;28;20498;-73
2022/11/23 04:12:13;;;;;;;1.98;1.15;;;;;;;-3.52;95.00;100985.03;10564612;28;20051;-73
2022/11/23 04:17:15;;;;;;;0.22;0.22;;;;;;;-3.52;94.95;100977.81;10568378;28;20529;-74
2022/11/23 04:22:19;;;;;;;0.93;0.65;;;;;;;-3.53;94.41;100973.47;10570526;28;20039;-74
2022/11/23 04:27:23;;;;;;;0.25;0.25;;;;;;;-3.53;94.55;100969.97;10554652;28;20064;-73
2022/11/23 04:32:25;;;;;;;1.70;0.57;;;;;;;-3.49;94.86;100974.78;10570558;28;20583;-73
2022/11/23 04:37:29;;;;;;;1.25;0.98;;;;;;;-3.50;94.82;100973.13;10566851;28;20067;-73
2022/11/23 04:42:32;;;;;;;2.08;1.13;;;;;;;-3.51;94.68;100976.81;10530497;28;20041;-73
2022/11/23 04:47:37;;;;;;;3.22;1.33;;;;;;;-3.54;94.35;100966.44;10548357;28;20056;-73
2022/11/23 04:52:47;;;;;;;1.23;1.05;;;;;;;-3.57;94.49;100972.19;10539536;28;20044;-73
2022/11/23 04:57:54;;;;;;;3.97;1.27;;;;;;;-3.56;94.61;100973.84;10540967;28;20391;-74
2022/11/23 05:03:05;;;;;;;1.45;0.75;;;;;;;-3.59;94.79;100971.53;10545415;28;20032;-74
2022/11/23 05:08:10;;;;;;;0.52;0.47;;;;;;;-3.60;95.02;100969.88;10569544;28;20429;-74
2022/11/23 05:13:22;;;;;;;0.70;0.70;;;;;;;-3.56;95.16;100973.84;10542186;28;20036;-73
2022/11/23 05:18:25;;;;;;;2.20;1.20;;;;;;;-3.57;94.51;100977.53;10535944;28;20056;-74
2022/11/23 05:23:28;;;;;;;0.52;0.52;;;;;;;-3.59;95.29;100984.94;10551296;28;20047;-73
2022/11/23 05:28:31;;;;;;;3.05;1.10;;;;;;;-3.60;95.23;100972.56;10540409;28;20052;-74
2022/11/23 05:33:37;;;;;;;1.73;0.40;;;;;;;-3.66;95.56;100978.63;10566730;28;20032;-74
2022/11/23 05:38:41;;;;;;;0.28;0.28;;;;;;;-3.69;95.43;100981.66;10559110;28;20056;-74
2022/11/23 05:43:49;;;;;;;1.17;1.00;;;;;;;-3.66;95.44;100965.22;10566152;28;20186;-74
2022/11/23 05:48:57;;;;;;;0.83;0.80;;;;;;;-3.69;95.36;100969.09;10562161;28;20040;-76
2022/11/23 05:54:01;;;;;;;1.73;1.00;;;;;;;-3.70;96.19;100964.75;10555182;28;20153;-74
2022/11/23 05:59:11;;;;;;;2.35;0.75;;;;;;;-3.72;95.76;100979.34;10561105;28;20539;-73
2022/11/23 06:04:21;;;;;;;1.73;0.57;;;;;;;-3.75;95.58;100969.81;10564171;28;20051;-74
2022/11/23 06:09:23;;;;;;;0.70;0.55;;;;;;;-3.73;96.04;100975.00;10571020;28;20036;-74
2022/11/23 06:14:28;;;;;;;1.75;1.23;;;;;;;-3.74;96.13;100973.31;10552295;28;20032;-73
2022/11/23 06:19:32;;;;;;;1.65;0.68;;;;;;;-3.70;96.06;100985.34;10525133;28;20040;-73
2022/11/23 06:24:34;;;;;;;0.82;0.60;;;;;;;-3.71;96.73;100991.75;10566141;28;20040;-74
2022/11/23 06:30:11;;;;;;;1.38;1.00;;;;;;;-3.65;96.52;100974.91;10532858;28;20045;-73
2022/11/23 06:35:14;;;;;;;0.47;0.47;;;;;;;-3.64;97.05;100979.28;10565140;28;20040;-75
2022/11/23 06:40:20;;;;;;;1.75;1.20;;;;;;;-3.61;96.65;100972.72;10549196;28;20049;-74
2022/11/23 06:45:22;;;;;;;0.73;0.40;;;;;;;-3.60;96.64;100983.28;10545474;28;20051;-76
2022/11/23 06:50:28;;;;;;;1.45;0.88;;;;;;;-3.59;96.25;100979.56;10557167;28;20055;-75
2022/11/23 06:55:31;;;;;;;0.93;0.80;;;;;;;-3.61;96.49;100997.69;10549815;28;20040;-75
2022/11/23 07:00:33;;;;;;;0.38;0.38;;;;;;;-3.63;96.67;101013.16;10526931;28;20052;-75
2022/11/23 07:05:37;;;;;;;0.50;0.50;;;;;;;-3.65;96.17;101004.41;10530605;28;20041;-74
2022/11/23 07:10:40;;;;;;;0.38;0.38;;;;;;;-3.63;96.01;101005.09;10526450;28;20388;-74
2022/11/23 07:15:50;;;;;;;1.38;1.27;;;;;;;-3.61;96.17;101010.28;10535780;28;20044;-74
2022/11/23 07:20:53;;;;;;;0.80;0.70;;;;;;;-3.60;96.07;101003.91;10547045;28;20089;-74
2022/11/23 07:25:56;;;;;;;0.95;0.88;;;;;;;-3.59;95.81;101009.09;10570588;28;20043;-77
2022/11/23 07:30:59;;;;;;;1.13;0.73;;;;;;;-3.52;95.64;101020.75;10556940;28;20413;-75
2022/11/23 07:36:03;;;;;;;0.30;0.30;;;;;;;-3.47;95.82;101009.47;10574450;28;20036;-75
2022/11/23 07:41:06;;;;;;;0.98;0.63;;;;;;;-3.42;95.43;101015.97;10573987;28;20056;-75
2022/11/23 07:46:41;;;;;;;1.02;0.90;;;;;;;-3.36;95.73;101007.19;10568242;28;20071;-75
2022/11/23 07:51:43;;;;;;;0.95;0.80;;;;;;;-3.24;95.98;101023.72;10576681;28;20506;-74
2022/11/23 07:56:45;;;;;;;1.02;0.93;;;;;;;-3.25;95.50;101016.66;10575618;28;20410;-75
2022/11/23 08:01:47;;;;;;;2.47;1.60;;;;;;;-3.22;96.11;101015.47;10575820;28;20044;-75
2022/11/23 08:06:50;;;;;;;0.45;0.45;;;;;;;-3.14;95.82;101026.13;10574887;28;20048;-74
2022/11/23 08:11:52;;;;;;;0.30;0.20;;;;;;;-3.12;96.30;101024.94;10574616;28;20055;-74
2022/11/23 08:16:54;;;;;;;1.40;0.93;;;;;;;-3.09;96.82;101018.38;10574686;28;20428;-74
2022/11/23 08:21:56;;;;;;;0.30;0.30;;;;;;;-3.09;96.43;101024.56;10574820;28;20044;-74
2022/11/23 08:26:58;;;;;;;1.13;0.80;;;;;;;-3.08;96.91;101020.03;10573667;28;20048;-73
2022/11/23 08:32:01;;;;;;;0.10;0.10;;;;;;;-3.06;96.86;101010.78;10573576;28;20541;-75
2022/11/23 08:37:03;;;;;;;1.00;0.63;;;;;;;-3.03;97.35;101023.84;10572900;28;20445;-74
2022/11/23 08:42:05;;;;;;;0.90;0.68;;;;;;;-2.99;98.21;101015.41;10574071;28;20040;-75
2022/11/23 08:47:07;;;;;;;1.33;0.85;;;;;;;-2.98;97.68;101009.84;10571495;28;20043;-75
2022/11/23 08:52:10;;;;;;;0.60;0.60;;;;;;;-2.95;97.80;101017.56;10569737;28;20040;-73
2022/11/23 08:57:12;;;;;;;0.98;0.77;;;;;;;-2.93;98.04;101012.84;10572926;28;20048;-75
2022/11/23 09:02:14;;;;;;;0.30;0.20;;;;;;;-2.92;97.69;101019.88;10572715;28;20059;-75
2022/11/23 09:07:16;;;;;;;1.23;0.68;;;;;;;-2.94;97.85;101029.97;10571359;28;20040;-75
2022/11/23 09:12:18;;;;;;;0.98;0.73;;;;;;;-2.98;98.26;101022.44;10566263;28;20040;-75
2022/11/23 09:17:21;;;;;;;0.68;0.68;;;;;;;-2.98;97.63;101020.59;10531802;28;20258;-74
2022/11/23 09:22:23;;;;;;;0.47;0.47;;;;;;;-2.96;98.01;101028.47;10538396;28;20047;-75
2022/11/23 09:27:25;;;;;;;0.50;0.50;;;;;;;-2.92;98.26;101022.56;10568523;28;20056;-74
2022/11/23 09:32:28;;;;;;;0.90;0.75;;;;;;;-2.92;97.80;101029.78;10568674;28;20040;-74
2022/11/23 09:37:30;;;;;;;0.80;0.80;;;;;;;-2.89;97.77;101030.25;10569679;28;20044;-75
2022/11/23 09:42:53;;;;;;;0.77;0.60;;;;;;;-2.87;97.79;101027.38;10570087;28;20103;-75
2022/11/23 09:48:05;;;;;;;1.55;0.65;;;;;;;-2.87;97.40;101025.53;10552024;28;20040;-74
2022/11/23 09:53:12;;;;;;;3.60;0.77;;;;;;;-2.87;97.53;101038.94;10569513;28;20032;-74
2022/11/23 09:58:17;;;;;;;3.60;1.13;;;;;;;-2.90;97.42;101033.13;10569336;28;20056;-74
2022/11/23 10:03:19;;;;;;;0.90;0.50;;;;;;;-2.97;96.93;101035.69;10567785;28;20044;-74
2022/11/23 10:08:36;;;;;;;2.35;0.70;;;;;;;-2.97;96.82;101048.25;10568649;28;20040;-74
2022/11/23 10:13:44;;;;;;;1.30;0.85;;;;;;;-3.03;96.48;101039.94;10568239;28;20059;-74
2022/11/23 10:19:00;;;;;;;0.30;0.30;;;;;;;-3.07;96.21;101059.28;10568247;28;20039;-74
2022/11/23 10:24:18;;;;;;;0.43;0.32;;;;;;;-3.15;96.14;101052.13;10569418;28;20032;-74
2022/11/23 10:29:36;;;;;;;0.35;0.22;;;;;;;-3.16;95.82;101053.13;10568292;28;20056;-74
2022/11/23 10:34:50;;;;;;;0.45;0.45;;;;;;;-3.15;96.03;101049.44;10559076;28;20400;-73
2022/11/23 10:39:52;;;;;;;1.27;0.68;;;;;;;-3.14;95.77;101067.22;10550767;28;20047;-74
2022/11/23 10:45:00;;;;;;;0.52;0.52;;;;;;;-3.13;96.14;101060.00;10568537;28;20044;-74
2022/11/23 10:50:03;;;;;;;2.15;1.00;;;;;;;-3.11;96.06;101060.66;10568384;28;20044;-73
2022/11/23 10:55:08;;;;;;;0.20;0.20;;;;;;;-3.14;96.42;101044.91;10567116;28;20044;-75
2022/11/23 11:00:14;;;;;;;2.38;0.60;;;;;;;-3.15;96.70;101045.91;10572391;28;20040;-73
2022/11/23 11:05:33;;;;;;;1.05;0.95;;;;;;;-3.13;96.26;101062.66;10576961;28;20040;-74
2022/11/23 11:10:41;;;;;;;1.98;0.57;;;;;;;-3.09;96.54;101045.22;10575962;28;20040;-75
2022/11/23 11:15:54;;;;;;;1.48;0.82;;;;;;;-3.06;96.64;101044.84;10567836;28;20124;-74
2022/11/23 11:21:05;;;;;;;0.40;0.40;;;;;;;-3.10;96.48;101044.38;10534389;28;20044;-74
2022/11/23 11:26:18;;;;;;;0.22;0.22;;;;;;;-3.06;96.06;101050.22;10564511;28;20043;-74
2022/11/23 11:31:45;;;;;;;2.90;1.45;;;;;;;-3.10;95.48;101048.91;10577749;28;20051;-75
2022/11/23 11:36:52;;;;;;;1.65;0.82;;;;;;;-3.09;95.32;101051.41;10579686;28;20036;-74
2022/11/23 11:41:57;;;;;;;0.63;0.52;;;;;;;-3.08;95.34;101054.94;10561532;28;20032;-74
2022/11/23 11:47:05;;;;;;;0.40;0.40;;;;;;;-3.12;95.26;101061.69;10580698;28;20506;-73
2022/11/23 11:52:17;;;;;;;1.17;0.60;;;;;;;-3.17;95.55;101047.97;10580351;28;20039;-74
2022/11/23 11:57:23;;;;;;;2.15;0.93;;;;;;;-3.21;96.02;101046.66;10563856;28;20517;-73
2022/11/23 12:02:40;;;;;;;0.80;0.80;;;;;;;-3.26;95.76;101049.06;10564239;28;20032;-73
2022/11/23 12:08:01;;;;;;;1.92;0.55;;;;;;;-3.36;95.69;101066.22;10576923;28;20051;-75
2022/11/23 12:13:07;;;;;;;0.70;0.43;;;;;;;-3.43;95.76;101070.66;10576197;28;20062;-74
2022/11/23 12:18:09;;;;;;;0.60;0.60;;;;;;;-3.49;95.53;101081.25;10565942;28;20047;-72
2022/11/23 12:23:40;;;;;;;0.57;0.57;;;;;;;-3.55;95.47;101074.75;10577721;28;20414;-73
2022/11/23 12:29:01;;;;;;;0.60;0.55;;;;;;;-3.56;95.17;101080.31;10574287;28;20052;-73
2022/11/23 12:34:32;;;;;;;3.25;1.17;;;;;;;-3.60;95.14;101074.47;10569967;28;20052;-74
2022/11/23 12:40:15;;;;;;;4.38;1.30;;;;;;;-3.61;95.30;101077.34;10572902;28;20419;-73
2022/11/23 12:45:29;;;;;;;1.95;1.10;;;;;;;-3.59;95.29;101072.63;10459703;28;20044;-74
2022/11/23 12:50:37;;;;;;;0.75;0.60;;;;;;;-3.56;95.51;101097.22;10539818;28;20056;-72
2022/11/23 12:56:08;;;;;;;0.77;0.60;;;;;;;-3.59;95.08;101091.41;10571968;28;20530;-72
2022/11/23 13:01:18;;;;;;;0.30;0.30;;;;;;;-3.66;95.26;101085.88;10564718;28;22708;-73
2022/11/23 13:06:41;;;;;;;2.78;1.35;;;;;;;-3.72;94.98;101095.47;10529743;28;20048;-72
2022/11/23 13:11:57;;;;;;;0.93;0.68;;;;;;;-3.76;95.38;101101.38;10530655;28;20044;-72
2022/11/23 13:17:04;;;;;;;3.92;1.05;;;;;;;-3.79;94.51;101102.56;10532031;28;20045;-72
2022/11/23 13:22:16;;;;;;;0.85;0.55;;;;;;;-3.83;94.29;101092.34;10556526;28;20040;-73
2022/11/23 13:27:27;;;;;;;1.65;1.30;;;;;;;-3.89;94.40;101088.53;10539712;28;20040;-73
2022/11/23 13:32:32;;;;;;;1.92;1.73;;;;;;;-3.90;94.96;101086.88;10539745;28;20040;-72
2022/11/23 13:37:54;;;;;;;2.20;0.77;;;;;;;-3.86;94.71;101080.16;10569583;28;20040;-74
2022/11/23 13:43:01;;;;;;;2.08;1.55;;;;;;;-3.89;94.54;101080.50;10571104;28;20032;-75
2022/11/23 13:48:08;;;;;;;3.30;1.20;;;;;;;-3.91;94.95;101076.34;10569111;28;20040;-73
2022/11/23 13:53:29;;;;;;;1.60;1.05;;;;;;;-3.89;95.03;101079.66;10563540;28;20079;-75
2022/11/23 13:58:36;;;;;;;2.63;1.77;;;;;;;-3.94;95.56;101085.56;10566586;28;20048;-75
2022/11/23 14:03:41;;;;;;;1.83;1.15;;;;;;;-3.97;95.52;101088.59;10563244;28;20035;-76
2022/11/23 14:08:44;;;;;;;2.88;1.77;;;;;;;-4.04;95.88;101088.44;10565502;28;20048;-76
2022/11/23 14:13:56;;;;;;;1.85;0.93;;;;;;;-3.98;95.63;101086.94;10565074;28;20043;-75
2022/11/23 14:19:14;;;;;;;2.35;1.20;;;;;;;-3.98;95.74;101109.22;10568632;28;20054;-75
2022/11/23 14:24:37;;;;;;;2.85;1.40;;;;;;;-4.02;95.58;101099.81;10553427;28;20040;-74
2022/11/23 14:30:02;;;;;;;1.30;1.20;;;;;;;-3.97;95.93;101112.72;10560466;28;20046;-76
2022/11/23 14:35:23;;;;;;;3.38;2.33;;;;;;;-3.94;95.70;101117.72;10559380;28;20524;-75
2022/11/23 14:40:29;;;;;;;3.30;1.90;;;;;;;-3.93;95.54;101113.19;10576750;28;20050;-75
2022/11/23 14:45:32;;;;;;;2.28;1.55;;;;;;;-3.93;96.19;101124.75;10556107;28;20271;-75
2022/11/23 14:50:35;;;;;;;1.50;1.05;;;;;;;-3.87;95.82;101128.56;10569693;28;20040;-74
2022/11/23 14:55:38;;;;;;;1.50;1.27;;;;;;;-3.84;95.95;101129.06;10565276;28;20040;-75
2022/11/23 15:00:43;;;;;;;2.85;1.55;;;;;;;-3.84;96.03;101133.59;10562780;28;20534;-76
2022/11/23 15:05:49;;;;;;;3.60;1.98;;;;;;;-3.84;96.09;101121.00;10557260;28;20047;-75
2022/11/23 15:11:00;;;;;;;1.88;1.40;;;;;;;-3.79;96.33;101132.06;10554545;28;20040;-74
2022/11/23 15:16:03;;;;;;;1.30;1.17;;;;;;;-3.78;96.49;101130.22;10543728;28;20044;-75
2022/11/23 15:21:08;;;;;;;1.15;0.75;;;;;;;-3.72;96.98;101126.81;10570533;28;20055;-75
2022/11/23 15:26:20;;;;;;;6.10;2.03;;;;;;;-3.68;97.20;101137.00;10552291;28;20043;-77
2022/11/23 15:31:31;;;;;;;6.35;2.35;;;;;;;-3.70;97.04;101143.56;10574572;28;20058;-76
2022/11/23 15:36:35;;;;;;;3.17;1.73;;;;;;;-3.70;97.78;101141.72;10585645;28;20502;-77
2022/11/23 15:41:38;;;;;;;2.15;1.40;;;;;;;-3.63;97.73;101141.88;10576435;28;20135;-76
2022/11/23 15:46:40;;;;;;;2.60;1.63;;;;;;;-3.61;97.53;101141.69;10577796;28;20051;-81
2022/11/23 15:51:43;;;;;;;1.88;1.42;;;;;;;-3.61;97.43;101145.22;10577678;28;20036;-74
2022/11/23 15:56:49;;;;;;;2.22;1.70;;;;;;;-3.61;97.98;101155.09;10563829;28;21470;-74
2022/11/23 16:01:52;;;;;;;6.03;2.50;;;;;;;-3.67;97.62;101173.56;10559433;28;20044;-78
2022/11/23 16:06:55;;;;;;;1.08;0.95;;;;;;;-3.69;97.50;101175.56;10563705;28;20075;-76
2022/11/23 16:11:57;;;;;;;1.60;0.80;;;;;;;-3.70;97.46;101178.44;10561323;28;20043;-75
2022/11/23 16:17:03;;;;;;;3.95;0.98;;;;;;;-3.68;96.79;101187.13;10573158;28;20040;-79
2022/11/23 16:22:06;;;;;;;0.63;0.40;;;;;;;-3.74;97.22;101179.81;10536395;28;20036;-81
2022/11/23 16:27:13;;;;;;;0.95;0.80;;;;;;;-3.80;96.74;101191.25;10570429;28;20056;-77
2022/11/23 16:32:27;;;;;;;1.05;0.60;;;;;;;-3.83;96.51;101223.72;10563644;28;20545;-77
2022/11/23 16:37:29;;;;;;;0.40;0.40;;;;;;;-3.83;95.83;101197.75;10571914;28;20503;-83
2022/11/23 16:42:31;;;;;;;0.90;0.90;;;;;;;-3.87;96.20;101219.72;10558185;28;20131;-77
2022/11/23 16:47:54;;;;;;;0.77;0.60;;;;;;;-3.96;96.64;101198.31;10563234;28;20040;-76
2022/11/23 16:53:00;;;;;;;0.32;0.32;;;;;;;-4.01;96.55;101208.72;10565185;28;20106;-80
2022/11/23 16:58:02;;;;;;;1.95;1.30;;;;;;;-4.05;97.18;101214.59;10568429;28;20040;-74
2022/11/23 17:03:04;;;;;;;1.48;1.00;;;;;;;-4.07;97.11;101221.97;10549316;28;20491;-74
2022/11/23 17:08:07;;;;;;;4.13;1.27;;;;;;;-4.10;97.72;101220.47;10571219;28;20044;-78
2022/11/23 17:13:23;;;;;;;1.55;1.20;;;;;;;-4.08;98.14;101217.63;10567564;28;20487;-76
2022/11/23 17:18:25;;;;;;;1.65;1.55;;;;;;;-4.09;97.63;101207.91;10570489;28;20081;-75
2022/11/23 17:23:28;;;;;;;1.30;1.13;;;;;;;-4.08;97.98;101213.09;10569583;28;20647;-78
2022/11/23 17:28:30;;;;;;;1.55;1.08;;;;;;;-4.13;97.57;101218.16;10550574;28;20055;-76
2022/11/23 17:33:32;;;;;;;1.23;1.08;;;;;;;-4.19;98.37;101200.06;10552686;28;20493;-80
2022/11/23 17:38:37;;;;;;;1.02;1.00;;;;;;;-4.16;98.03;101198.91;10552840;28;20036;-77
2022/11/23 17:43:39;;;;;;;1.13;1.00;;;;;;;-4.16;98.03;101210.44;10569653;28;20044;-77
2022/11/23 17:48:41;;;;;;;1.92;1.02;;;;;;;-4.22;98.16;101203.06;10567011;28;20689;-80
2022/11/23 17:53:44;;;;;;;1.75;1.05;;;;;;;-4.23;98.04;101205.94;10565087;28;20033;-78
2022/11/23 17:58:47;;;;;;;1.15;1.00;;;;;;;-4.29;98.10;101207.47;10540518;28;20498;-79
2022/11/23 18:03:49;;;;;;;1.50;1.00;;;;;;;-4.31;98.36;101209.47;10579507;28;20039;-79
2022/11/23 18:08:52;;;;;;;1.58;1.30;;;;;;;-4.31;98.65;101215.66;10575449;28;20048;-81
2022/11/23 18:13:54;;;;;;;0.93;0.90;;;;;;;-4.29;98.03;101196.75;10575854;28;20079;-79
2022/11/23 18:18:56;;;;;;;2.22;1.20;;;;;;;-4.25;98.12;101224.84;10570012;28;20040;-74
2022/11/23 18:23:58;;;;;;;1.85;1.33;;;;;;;-4.29;98.52;101239.59;10563722;28;20502;-74
2022/11/23 18:29:01;;;;;;;1.25;1.15;;;;;;;-4.35;98.34;101224.19;10572959;28;20058;-75
2022/11/23 18:34:04;;;;;;;1.42;1.25;;;;;;;-4.37;98.50;101243.13;10547737;28;20036;-75
2022/11/23 18:39:06;;;;;;;0.90;0.90;;;;;;;-4.39;98.56;101239.78;10544371;28;20037;-73
2022/11/23 18:44:08;;;;;;;1.10;0.93;;;;;;;-4.43;98.80;101242.97;10551735;28;20053;-74
2022/11/23 18:49:11;;;;;;;1.23;1.00;;;;;;;-4.41;98.98;101236.44;10555376;28;20520;-76
2022/11/23 18:54:13;;;;;;;1.20;1.00;;;;;;;-4.44;98.65;101234.09;10560054;28;20052;-75
2022/11/23 18:59:15;;;;;;;1.20;1.10;;;;;;;-4.44;98.29;101238.63;10568590;28;20036;-75
2022/11/23 19:04:17;;;;;;;1.00;0.85;;;;;;;-4.49;98.83;101254.38;10557931;28;20044;-75
2022/11/23 19:09:19;;;;;;;1.38;1.27;;;;;;;-4.51;98.60;101251.00;10567910;28;20052;-75
2022/11/23 19:14:22;;;;;;;1.33;1.23;;;;;;;-4.56;98.25;101265.72;10559941;28;20051;-74
2022/11/23 19:19:29;;;;;;;2.75;1.60;;;;;;;-4.58;98.27;101270.41;10548041;28;20376;-73
2022/11/23 19:24:31;;;;;;;1.70;1.30;;;;;;;-4.66;98.62;101283.81;10568964;28;20058;-72
2022/11/23 19:29:33;;;;;;;1.38;1.27;;;;;;;-4.72;98.65;101275.59;10571336;28;20040;-74
2022/11/23 19:34:35;;;;;;;2.30;1.25;;;;;;;-4.77;98.36;101285.97;10576056;28;20028;-74
2022/11/23 19:39:38;;;;;;;1.52;1.20;;;;;;;-4.85;98.36;101292.16;10576166;28;20044;-74
2022/11/23 19:44:40;;;;;;;2.10;1.70;;;;;;;-4.91;98.13;101299.00;10575546;28;20047;-73
2022/11/23 19:49:47;;;;;;;2.58;1.40;;;;;;;-4.92;98.26;101291.13;10571880;28;20051;-71
2022/11/23 19:54:50;;;;;;;1.30;1.20;;;;;;;-4.95;98.20;101315.53;10574010;28;20071;-74
2022/11/23 19:59:56;;;;;;;1.52;1.10;;;;;;;-5.06;97.73;101314.00;10570406;28;20032;-73
2022/11/23 20:04:59;;;;;;;0.45;0.45;;;;;;;-5.10;97.65;101309.16;10539722;28;20028;-74
2022/11/23 20:15:28;;;;;;;1.70;1.20;;;;;;;-5.14;96.95;101340.75;10565051;28;20036;-72
2022/11/23 20:20:31;;;;;;;1.30;0.90;;;;;;;-5.24;96.86;101354.22;10574176;28;20441;-73
2022/11/23 20:25:35;;;;;;;1.58;1.27;;;;;;;-5.31;96.26;101353.22;10575978;28;20035;-76
2022/11/23 20:30:37;;;;;;;1.90;0.90;;;;;;;-5.34;96.14;101353.53;10561743;28;20437;-74
2022/11/23 20:35:40;;;;;;;1.23;1.00;;;;;;;-5.37;95.76;101355.69;10569810;28;20040;-74
2022/11/23 20:40:46;;;;;;;2.45;1.23;;;;;;;-5.41;94.84;101365.84;10556046;28;20044;-74
2022/11/23 20:45:48;;;;;;;2.15;1.40;;;;;;;-5.50;95.67;101372.19;10572245;28;20044;-72
2022/11/23 20:50:50;;;;;;;1.25;1.08;;;;;;;-5.47;95.96;101363.84;10554143;28;20046;-74
2022/11/23 20:55:59;;;;;;;1.60;1.23;;;;;;;-5.45;95.70;101372.53;10575056;28;20056;-75
2022/11/23 21:01:07;;;;;;;2.13;1.58;;;;;;;-5.48;95.48;101364.81;10565239;28;20134;-74
2022/11/23 21:06:11;;;;;;;1.83;1.20;;;;;;;-5.49;96.07;101369.34;10563030;28;20040;-73
2022/11/23 21:16:57;;;;;;;1.65;0.90;;;;;;;-5.41;95.92;101367.69;10570593;28;20044;-74
2022/11/23 21:22:07;;;;;;;3.28;1.65;;;;;;;-5.43;95.96;101391.91;10566489;28;20040;-75
2022/11/23 21:27:11;;;;;;;1.60;1.15;;;;;;;-5.51;95.66;101389.22;10569459;28;20040;-73
2022/11/23 21:32:14;;;;;;;1.17;0.98;;;;;;;-5.58;95.26;101404.19;10568198;28;20542;-76
2022/11/23 21:37:16;;;;;;;1.25;0.90;;;;;;;-5.65;95.19;101385.28;10559301;28;20370;-74
2022/11/23 21:42:18;;;;;;;2.28;1.15;;;;;;;-5.72;94.65;101400.28;10556526;28;20035;-75
2022/11/23 21:47:20;;;;;;;1.42;1.05;;;;;;;-5.78;94.84;101391.03;10576218;28;20040;-76
2022/11/23 21:52:23;;;;;;;1.40;1.20;;;;;;;-5.77;94.82;101418.59;10568639;28;20401;-77
2022/11/23 21:57:25;;;;;;;1.73;1.25;;;;;;;-5.84;94.83;101413.06;10555784;28;20044;-75
2022/11/23 22:02:28;;;;;;;1.15;1.00;;;;;;;-5.89;95.39;101402.00;10573019;28;20044;-74
2022/11/23 22:07:32;;;;;;;1.63;1.15;;;;;;;-5.93;95.29;101405.97;10573437;28;20066;-74
2022/11/23 22:12:34;;;;;;;1.23;0.90;;;;;;;-5.96;94.96;101400.97;10549866;28;20064;-75
2022/11/23 22:17:36;;;;;;;1.77;1.45;;;;;;;-5.94;95.42;101401.63;10567357;28;20395;-76
2022/11/23 22:22:39;;;;;;;1.25;0.85;;;;;;;-5.94;95.25;101390.94;10562293;28;20047;-76
2022/11/23 22:27:41;;;;;;;1.60;1.02;;;;;;;-5.98;96.14;101380.72;10563867;28;20051;-76
2022/11/23 22:32:43;;;;;;;1.05;0.95;;;;;;;-6.05;95.71;101393.03;10564872;28;20047;-76
2022/11/23 22:37:45;;;;;;;0.80;0.80;;;;;;;-6.02;95.70;101382.88;10565515;28;20047;-77
2022/11/23 22:42:47;;;;;;;2.25;1.20;;;;;;;-6.07;95.80;101398.53;10563457;28;20032;-77
2022/11/23 22:47:50;;;;;;;1.67;1.08;;;;;;;-6.14;95.71;101378.75;10564656;28;20032;-77
2022/11/23 22:52:52;;;;;;;1.38;0.70;;;;;;;-6.14;95.67;101371.59;10563569;28;20040;-77
2022/11/23 22:57:54;;;;;;;1.45;0.93;;;;;;;-6.12;95.76;101376.78;10555121;28;20181;-75
2022/11/23 23:02:56;;;;;;;1.55;1.20;;;;;;;-6.12;95.87;101390.13;10564087;28;20032;-75
2022/11/23 23:07:58;;;;;;;2.30;1.23;;;;;;;-6.19;95.81;101400.59;10563722;28;20392;-75
2022/11/23 23:13:01;;;;;;;1.70;1.00;;;;;;;-6.23;95.62;101396.56;10542397;28;20047;-76
2022/11/23 23:18:03;;;;;;;1.88;1.38;;;;;;;-6.24;95.20;101412.75;10561761;28;20047;-75
2022/11/23 23:23:05;;;;;;;1.23;1.10;;;;;;;-6.31;95.10;101411.66;10561124;28;20048;-76
2022/11/23 23:28:08;;;;;;;0.70;0.47;;;;;;;-6.27;95.26;101395.19;10561551;28;20044;-76
2022/11/23 23:33:12;;;;;;;1.58;1.00;;;;;;;-6.22;94.92;101400.91;10557644;28;20040;-76
2022/11/23 23:38:14;;;;;;;1.10;0.82;;;;;;;-6.22;95.90;101408.94;10560184;28;20730;-76